Time;durP1;ratioP1;P1;durP2;ratioP2;P2;SDS_P1;SDS_P2;PMS_P1;PMS_P2;Temp;Humidity;BMP_temperature;BMP_pressure;BME280_temperature;BME280_humidity;BME280_pressure;Samples;Min_cycle;Max_cycle;Signal;HPM_P1;HPM_P2
2023/05/30 00:01:14;;;;;;;6.32;3.83;;;;;;;19.28;88.35;99489.75;5130527;27;20043;-82
2023/05/30 00:03:43;;;;;;;3.38;2.25;;;;;;;19.21;88.06;99476.81;5132540;27;20187;-81
2023/05/30 00:06:08;;;;;;;9.48;2.83;;;;;;;19.38;87.55;99522.19;5132043;27;20039;-81
2023/05/30 00:08:34;;;;;;;3.90;2.65;;;;;;;19.03;88.52;99492.00;5132500;27;20034;-81
2023/05/30 00:10:59;;;;;;;4.22;1.95;;;;;;;19.22;87.26;99503.47;5131322;27;20038;-81
2023/05/30 00:13:28;;;;;;;3.92;2.30;;;;;;;19.19;85.96;99471.53;5132489;27;20120;-81
2023/05/30 00:15:54;;;;;;;5.30;2.45;;;;;;;19.22;86.53;99495.44;5132204;27;20477;-81
2023/05/30 00:18:22;;;;;;;6.15;2.38;;;;;;;19.24;86.16;99487.34;5132216;27;20115;-81
2023/05/30 00:20:48;;;;;;;7.03;2.58;;;;;;;19.12;85.99;99472.81;5131318;27;20524;-81
2023/05/30 00:23:14;;;;;;;4.90;2.63;;;;;;;19.31;84.99;99480.72;5132459;27;20113;-81
2023/05/30 00:25:40;;;;;;;4.72;1.90;;;;;;;19.17;85.55;99464.53;5131617;27;20161;-81
2023/05/30 00:28:07;;;;;;;4.07;2.28;;;;;;;19.31;85.95;99494.09;5132359;27;20110;-82
2023/05/30 00:30:33;;;;;;;3.22;2.22;;;;;;;19.03;86.16;99452.81;5132386;27;20026;-82
2023/05/30 00:32:59;;;;;;;5.22;2.42;;;;;;;19.36;84.92;99485.81;5131205;27;20069;-83
2023/05/30 00:35:25;;;;;;;3.33;1.88;;;;;;;19.24;85.57;99488.19;5131901;27;20120;-82
2023/05/30 00:37:50;;;;;;;4.93;3.08;;;;;;;19.05;85.79;99447.38;5131436;27;20460;-82
2023/05/30 00:40:16;;;;;;;4.93;2.70;;;;;;;19.12;85.79;99462.13;5131364;27;20047;-82
2023/05/30 00:42:41;;;;;;;4.00;2.20;;;;;;;19.16;85.06;99462.84;5131295;27;20114;-82
2023/05/30 00:45:07;;;;;;;4.72;2.38;;;;;;;19.43;84.12;99496.09;5131854;27;20123;-81
2023/05/30 00:47:33;;;;;;;3.67;2.00;;;;;;;19.33;83.28;99482.34;5131298;27;20369;-82
2023/05/30 00:49:59;;;;;;;6.75;2.35;;;;;;;19.25;84.17;99479.22;5131808;27;20165;-81
2023/05/30 00:52:24;;;;;;;2.20;1.52;;;;;;;19.33;83.92;99495.72;5130898;27;20038;-82
2023/05/30 00:54:51;;;;;;;3.55;1.67;;;;;;;19.26;84.72;99490.78;5130716;27;20031;-82
2023/05/30 00:57:16;;;;;;;3.55;2.47;;;;;;;19.37;84.91;99509.78;5131808;27;20027;-82
2023/05/30 00:59:43;;;;;;;2.70;1.60;;;;;;;19.35;84.76;99506.31;5131687;27;20024;-82
2023/05/30 01:02:09;;;;;;;2.90;1.90;;;;;;;19.16;85.24;99465.50;5131760;27;20029;-82
2023/05/30 01:04:35;;;;;;;7.85;1.52;;;;;;;19.38;84.52;99497.28;5130656;27;20019;-82
2023/05/30 01:07:00;;;;;;;4.93;2.00;;;;;;;19.22;85.01;99487.41;5130929;27;20087;-82
2023/05/30 01:09:27;;;;;;;3.42;2.47;;;;;;;19.17;84.91;99501.97;5130342;27;20038;-82
2023/05/30 01:11:52;;;;;;;2.00;1.50;;;;;;;19.16;85.57;99484.22;5131297;27;20058;-82
2023/05/30 01:14:56;;;;;;;3.97;1.85;;;;;;;19.35;84.81;99506.31;5131075;27;20081;-82
2023/05/30 01:18:04;;;;;;;3.65;1.80;;;;;;;19.34;84.68;99512.63;5047087;28;20052;-81
2023/05/30 01:20:38;;;;;;;1.92;1.42;;;;;;;19.37;84.84;99511.59;5015600;28;20044;-82
2023/05/30 01:23:14;;;;;;;3.22;1.38;;;;;;;19.27;84.94;99514.75;5047584;28;20183;-82
2023/05/30 01:25:59;;;;;;;4.13;1.98;;;;;;;19.37;84.33;99508.91;5047816;28;20029;-82
2023/05/30 01:28:28;;;;;;;;;;;;;;;19.24;85.41;99506.03;5047879;28;20048;-82
2023/05/30 01:30:56;;;;;;;4.65;2.28;;;;;;;19.06;85.35;99463.31;5047237;28;19917;-82
2023/05/30 01:33:22;;;;;;;3.20;1.90;;;;;;;18.94;85.32;99469.31;5048055;28;20121;-81
2023/05/30 01:35:47;;;;;;;5.50;1.88;;;;;;;18.94;85.48;99474.66;5048068;28;20128;-81
2023/05/30 01:38:14;;;;;;;3.97;2.33;;;;;;;18.89;85.60;99466.91;5047644;28;20059;-80
2023/05/30 01:40:47;;;;;;;4.13;2.42;;;;;;;19.19;84.87;99492.06;5046286;28;20570;-81
2023/05/30 01:43:21;;;;;;;3.95;2.33;;;;;;;19.11;85.22;99497.84;5047604;28;20033;-80
2023/05/30 01:45:57;;;;;;;3.50;1.88;;;;;;;19.00;85.59;99460.09;5047697;28;20039;-81
2023/05/30 01:48:48;;;;;;;4.13;1.95;;;;;;;19.11;85.19;99481.78;5047409;28;20045;-82
2023/05/30 01:51:20;;;;;;;3.45;2.00;;;;;;;19.14;85.04;99479.81;4987801;28;20050;-82
2023/05/30 01:53:56;;;;;;;3.67;2.05;;;;;;;19.10;85.12;99477.38;5023823;28;20044;-82
2023/05/30 01:56:25;;;;;;;4.63;2.83;;;;;;;19.10;84.60;99480.06;5070381;28;20519;-82
2023/05/30 01:58:51;;;;;;;3.20;1.92;;;;;;;19.03;85.21;99490.22;5088114;28;20032;-82
2023/05/30 02:01:18;;;;;;;4.78;2.58;;;;;;;18.89;85.00;99472.25;5087106;28;20028;-82
2023/05/30 02:03:45;;;;;;;5.85;1.73;;;;;;;19.11;84.93;99500.50;5087766;28;20039;-82
2023/05/30 02:06:11;;;;;;;3.85;2.35;;;;;;;18.90;85.26;99475.75;5086899;28;20070;-82
2023/05/30 02:08:36;;;;;;;5.55;2.80;;;;;;;18.76;85.80;99471.13;5087887;28;20040;-81
2023/05/30 02:11:02;;;;;;;4.70;2.10;;;;;;;18.78;85.52;99475.44;5087224;28;20115;-82
2023/05/30 02:13:27;;;;;;;4.15;2.13;;;;;;;18.75;86.01;99475.59;5087357;28;20055;-81
2023/05/30 02:15:53;;;;;;;4.15;2.65;;;;;;;18.91;85.63;99486.38;5087615;28;20043;-81
2023/05/30 02:18:19;;;;;;;4.75;2.60;;;;;;;18.92;85.14;99482.78;5087693;28;20165;-81
2023/05/30 02:20:45;;;;;;;4.68;2.13;;;;;;;18.57;86.69;99450.72;5085120;28;20036;-81
2023/05/30 02:23:10;;;;;;;6.60;3.13;;;;;;;18.67;86.95;99456.41;5078424;28;20036;-81
2023/05/30 02:25:36;;;;;;;6.13;2.58;;;;;;;19.00;86.41;99502.88;5091419;28;20032;-81
2023/05/30 02:28:01;;;;;;;6.00;2.42;;;;;;;18.98;86.02;99497.59;5110235;27;20411;-81
2023/05/30 02:30:27;;;;;;;5.22;3.17;;;;;;;18.92;85.97;99476.53;5134605;27;20038;-81
2023/05/30 02:32:52;;;;;;;2.60;1.63;;;;;;;19.12;85.68;99499.53;5134498;27;20154;-81
2023/05/30 02:35:18;;;;;;;4.43;2.25;;;;;;;19.06;85.73;99479.38;5134596;27;20442;-81
2023/05/30 02:37:43;;;;;;;3.78;2.28;;;;;;;18.91;85.74;99453.47;5134845;27;20470;-82
2023/05/30 02:40:09;;;;;;;3.67;2.40;;;;;;;19.10;85.60;99482.72;5132283;27;20039;-82
2023/05/30 02:42:36;;;;;;;5.65;1.58;;;;;;;18.98;85.84;99472.69;5133955;27;20023;-81
2023/05/30 02:45:01;;;;;;;5.13;3.05;;;;;;;18.89;86.12;99458.88;5134449;27;20080;-81
2023/05/30 02:47:27;;;;;;;5.68;2.05;;;;;;;19.17;86.67;99505.53;5133748;27;20462;-81
2023/05/30 02:49:52;;;;;;;5.20;2.45;;;;;;;19.14;85.48;99484.31;5133914;27;20110;-81
2023/05/30 02:52:19;;;;;;;3.58;2.85;;;;;;;19.12;85.88;99499.53;5134044;27;20019;-81
2023/05/30 02:54:46;;;;;;;4.82;2.25;;;;;;;19.09;86.23;99505.94;5118973;27;20063;-81
2023/05/30 02:57:12;;;;;;;4.35;2.13;;;;;;;19.03;86.64;99500.03;5133847;27;20038;-81
2023/05/30 02:59:37;;;;;;;4.38;2.67;;;;;;;19.13;86.36;99512.81;5126841;27;20031;-82
2023/05/30 03:02:03;;;;;;;3.90;2.65;;;;;;;19.08;87.35;99512.22;5133777;27;20035;-82
2023/05/30 03:04:28;;;;;;;7.05;2.40;;;;;;;18.91;87.00;99474.84;5132911;27;20034;-81
2023/05/30 03:06:54;;;;;;;3.97;2.03;;;;;;;19.09;87.41;99516.63;5132902;27;20031;-83
2023/05/30 03:09:20;;;;;;;3.13;1.80;;;;;;;18.96;87.11;99488.81;5131976;27;20027;-83
2023/05/30 03:11:46;;;;;;;2.92;1.85;;;;;;;19.08;87.36;99514.03;5132950;27;20035;-84
2023/05/30 03:14:11;;;;;;;3.53;2.20;;;;;;;18.83;88.35;99475.22;5132173;27;20054;-83
2023/05/30 03:16:38;;;;;;;4.90;2.33;;;;;;;19.15;87.72;99523.44;5131700;27;20083;-82
2023/05/30 03:19:04;;;;;;;3.28;2.15;;;;;;;18.91;87.89;99480.19;5132455;27;20033;-82
2023/05/30 03:21:30;;;;;;;2.80;1.92;;;;;;;18.88;87.94;99480.34;5130747;27;20023;-84
2023/05/30 03:23:56;;;;;;;3.92;2.42;;;;;;;18.92;88.09;99490.78;5132910;27;20023;-83
2023/05/30 03:26:22;;;;;;;6.78;2.03;;;;;;;18.73;89.00;99495.31;5132126;27;20069;-84
2023/05/30 03:28:48;;;;;;;4.60;2.30;;;;;;;18.89;88.76;99509.66;5130144;27;20027;-84
2023/05/30 03:31:13;;;;;;;8.68;2.85;;;;;;;18.98;88.58;99521.66;5114025;27;20123;-85
2023/05/30 03:33:39;;;;;;;6.47;2.65;;;;;;;18.83;87.96;99482.34;5116557;27;20113;-87
2023/05/30 03:36:06;;;;;;;5.25;2.35;;;;;;;18.75;88.65;99496.09;5132782;27;20049;-84
2023/05/30 03:38:32;;;;;;;4.40;1.73;;;;;;;18.70;89.07;99498.16;5131622;27;20462;-83
2023/05/30 03:40:57;;;;;;;8.20;3.60;;;;;;;18.77;88.87;99511.13;5132006;27;20082;-85
2023/05/30 03:43:23;;;;;;;7.43;2.33;;;;;;;18.82;88.32;99516.22;5113195;27;20058;-86
2023/05/30 03:45:49;;;;;;;4.20;2.15;;;;;;;18.79;88.62;99505.69;5128975;27;20035;-87
2023/05/30 03:48:14;;;;;;;4.80;3.00;;;;;;;18.59;88.26;99493.38;5124398;27;20443;-86
2023/05/30 03:50:40;;;;;;;3.05;2.17;;;;;;;18.98;88.55;99548.38;5111700;28;20118;-86
2023/05/30 03:53:05;;;;;;;4.15;2.58;;;;;;;18.46;89.79;99502.94;5123416;27;20031;-87
2023/05/30 03:55:31;;;;;;;4.20;2.22;;;;;;;18.84;88.59;99534.84;5132138;27;20053;-87
2023/05/30 03:57:56;;;;;;;4.82;2.25;;;;;;;18.75;88.82;99512.13;5130453;27;20027;-84
2023/05/30 04:00:22;;;;;;;3.72;2.25;;;;;;;18.57;89.02;99505.94;5119317;27;20127;-86
2023/05/30 04:02:47;;;;;;;7.97;3.63;;;;;;;18.82;88.64;99536.75;5128997;27;20054;-87
2023/05/30 04:05:13;;;;;;;3.25;2.42;;;;;;;18.95;87.88;99530.72;5131896;27;20114;-87
2023/05/30 04:07:39;;;;;;;5.60;3.30;;;;;;;18.96;87.25;99536.91;5132074;27;20126;-86
2023/05/30 04:10:05;;;;;;;3.95;2.65;;;;;;;19.06;87.85;99567.56;5132538;27;20100;-87
2023/05/30 04:12:31;;;;;;;5.50;2.67;;;;;;;18.96;87.53;99527.06;5132354;27;20931;-85
2023/05/30 04:14:56;;;;;;;3.28;2.40;;;;;;;19.06;87.12;99554.22;5130661;27;20031;-85
2023/05/30 04:17:22;;;;;;;5.28;1.92;;;;;;;19.05;87.16;99555.16;5121846;27;20034;-84
2023/05/30 04:19:47;;;;;;;4.78;2.20;;;;;;;19.01;87.84;99556.25;5126348;27;20032;-83
2023/05/30 04:22:13;;;;;;;6.30;2.90;;;;;;;19.12;87.12;99551.22;5130662;27;20035;-82
2023/05/30 04:24:38;;;;;;;3.50;2.00;;;;;;;19.22;87.09;99572.13;5131142;27;20564;-85
2023/05/30 04:27:04;;;;;;;9.02;3.15;;;;;;;19.08;86.81;99549.63;5130957;27;20031;-86
2023/05/30 04:29:29;;;;;;;6.30;2.88;;;;;;;19.33;86.88;99586.63;5130935;27;20051;-86
2023/05/30 04:31:56;;;;;;;2.92;1.85;;;;;;;19.04;86.44;99533.84;5131503;27;20027;-86
2023/05/30 04:34:22;;;;;;;3.90;2.30;;;;;;;19.16;87.78;99561.75;5119606;27;20081;-87
2023/05/30 04:36:48;;;;;;;4.25;2.25;;;;;;;19.20;88.11;99585.56;5116727;27;20489;-85
2023/05/30 04:39:13;;;;;;;5.72;2.28;;;;;;;19.16;87.30;99559.06;5119427;27;20080;-84
2023/05/30 04:41:40;;;;;;;2.60;1.70;;;;;;;19.19;87.70;99567.78;5118319;27;20058;-85
2023/05/30 04:44:06;;;;;;;2.25;1.58;;;;;;;18.99;88.23;99542.09;5123194;27;20134;-83
2023/05/30 04:46:32;;;;;;;4.07;1.70;;;;;;;19.26;87.85;99582.56;5111083;28;20047;-84
2023/05/30 04:49:01;;;;;;;3.03;1.73;;;;;;;18.75;90.69;99585.16;5123774;27;20031;-84
2023/05/30 04:51:27;;;;;;;8.52;2.90;;;;;;;18.87;89.89;99588.16;5130601;27;20106;-85
2023/05/30 04:53:53;;;;;;;3.15;1.83;;;;;;;18.69;89.59;99598.81;5124451;27;20110;-85
2023/05/30 04:56:22;;;;;;;3.00;2.25;;;;;;;18.57;88.90;99580.72;5130222;27;20469;-84
2023/05/30 04:58:51;;;;;;;3.53;1.88;;;;;;;18.56;89.49;99579.84;5128728;27;20150;-84
2023/05/30 05:01:18;;;;;;;2.53;1.55;;;;;;;18.60;89.57;99592.13;5131423;27;20484;-84
2023/05/30 05:03:45;;;;;;;2.72;1.63;;;;;;;18.85;88.60;99598.94;5131175;27;20030;-85
2023/05/30 05:06:11;;;;;;;5.13;1.67;;;;;;;18.85;88.03;99614.97;5131650;27;20019;-84
2023/05/30 05:08:37;;;;;;;4.80;1.90;;;;;;;18.74;88.72;99607.47;5130725;27;20035;-84
2023/05/30 05:11:05;;;;;;;3.10;1.65;;;;;;;18.71;87.78;99580.03;5129374;27;20465;-85
2023/05/30 05:13:31;;;;;;;3.13;1.95;;;;;;;18.72;88.14;99596.00;5131135;27;20043;-84
2023/05/30 05:15:57;;;;;;;4.43;2.42;;;;;;;18.75;87.27;99576.25;5131381;27;20106;-84
2023/05/30 05:18:23;;;;;;;5.15;1.08;;;;;;;18.98;86.89;99612.53;5131386;27;20110;-84
2023/05/30 05:20:49;;;;;;;4.05;2.13;;;;;;;18.95;86.01;99608.22;5130791;27;20039;-84
2023/05/30 05:23:15;;;;;;;3.63;1.67;;;;;;;18.86;85.81;99610.47;5131188;27;20035;-86
2023/05/30 05:25:40;;;;;;;3.10;1.88;;;;;;;18.62;85.91;99594.72;5130283;27;20031;-85
2023/05/30 05:28:06;;;;;;;3.28;2.20;;;;;;;18.91;86.50;99611.13;5129119;27;20034;-85
2023/05/30 05:30:32;;;;;;;7.78;1.92;;;;;;;19.12;85.08;99628.75;5130310;27;20084;-86
2023/05/30 05:32:57;;;;;;;4.45;2.17;;;;;;;19.10;84.95;99597.69;5131035;27;20035;-85
2023/05/30 05:35:23;;;;;;;5.65;1.80;;;;;;;18.99;84.92;99592.88;5130730;27;20027;-87
2023/05/30 05:37:48;;;;;;;3.55;2.05;;;;;;;19.17;85.64;99617.81;5130730;27;20034;-85
2023/05/30 05:40:14;;;;;;;2.30;1.63;;;;;;;18.97;85.38;99618.84;5130484;27;20035;-85
2023/05/30 05:42:40;;;;;;;6.15;2.22;;;;;;;19.09;85.22;99623.56;5129444;28;20118;-85
2023/05/30 05:45:06;;;;;;;5.05;2.22;;;;;;;19.30;84.21;99632.25;5130824;27;20384;-85
2023/05/30 05:47:32;;;;;;;2.90;1.88;;;;;;;19.21;84.25;99648.78;5131359;27;20031;-86
2023/05/30 05:49:57;;;;;;;2.58;1.85;;;;;;;19.21;82.88;99642.56;5132134;27;20108;-85
2023/05/30 05:52:24;;;;;;;4.20;2.17;;;;;;;18.61;86.37;99580.50;5130504;27;20140;-85
2023/05/30 05:54:49;;;;;;;2.28;1.33;;;;;;;19.22;84.93;99617.56;5130906;28;20027;-85
2023/05/30 05:57:15;;;;;;;3.10;1.52;;;;;;;19.48;84.09;99634.94;5133206;27;20349;-84
2023/05/30 05:59:40;;;;;;;2.38;1.88;;;;;;;19.57;82.82;99626.41;5135256;27;20384;-84
2023/05/30 06:02:06;;;;;;;3.53;1.85;;;;;;;19.56;82.56;99623.81;5134769;27;20026;-84
2023/05/30 06:04:32;;;;;;;10.93;3.75;;;;;;;19.58;81.68;99651.34;5135212;27;20406;-83
2023/05/30 06:06:58;;;;;;;3.88;2.33;;;;;;;19.72;80.98;99639.91;5134231;27;20028;-84
2023/05/30 06:09:30;;;;;;;3.63;1.48;;;;;;;19.73;81.13;99629.13;5134433;27;20027;-83
2023/05/30 06:11:58;;;;;;;3.53;1.95;;;;;;;19.74;80.57;99616.59;5134396;27;20027;-84
2023/05/30 06:14:25;;;;;;;2.83;1.55;;;;;;;19.61;80.96;99644.00;5133842;27;20039;-85
2023/05/30 06:16:51;;;;;;;4.28;2.45;;;;;;;19.82;80.69;99650.06;5133576;27;20446;-83
2023/05/30 06:19:16;;;;;;;6.25;2.55;;;;;;;19.79;80.76;99636.84;5131996;27;20108;-85
2023/05/30 06:21:41;;;;;;;5.45;2.28;;;;;;;19.53;80.58;99611.47;5133857;27;20495;-85
2023/05/30 06:24:07;;;;;;;4.88;2.25;;;;;;;19.91;80.20;99635.34;5133530;27;20076;-83
2023/05/30 06:26:33;;;;;;;5.53;2.30;;;;;;;20.02;80.03;99645.47;5134058;27;20100;-83
2023/05/30 06:28:58;;;;;;;3.65;2.17;;;;;;;20.01;80.34;99627.66;5133395;27;20911;-85
2023/05/30 06:31:24;;;;;;;2.60;2.03;;;;;;;20.31;79.06;99657.22;5134418;27;20027;-85
2023/05/30 06:33:50;;;;;;;3.55;2.55;;;;;;;20.20;79.67;99649.78;5131452;27;20405;-83
2023/05/30 06:36:16;;;;;;;2.38;1.58;;;;;;;20.29;79.29;99634.16;5133673;27;20037;-86
2023/05/30 06:38:41;;;;;;;5.32;2.38;;;;;;;20.30;78.77;99633.22;5133622;27;20058;-84
2023/05/30 06:41:07;;;;;;;3.42;2.20;;;;;;;20.28;80.30;99675.25;5133968;27;20047;-84
2023/05/30 06:43:32;;;;;;;3.13;2.15;;;;;;;19.88;81.13;99629.25;5134481;27;20025;-84
2023/05/30 06:45:58;;;;;;;4.68;2.88;;;;;;;20.34;80.22;99662.41;5133478;27;20030;-84
2023/05/30 06:48:23;;;;;;;3.90;2.58;;;;;;;20.09;80.02;99636.13;5134492;27;20054;-84
2023/05/30 06:50:49;;;;;;;3.25;1.65;;;;;;;20.39;77.54;99670.19;5132515;27;20122;-84
2023/05/30 06:53:16;;;;;;;4.22;2.55;;;;;;;20.41;76.59;99637.97;5133913;27;20054;-84
2023/05/30 06:55:42;;;;;;;6.20;2.58;;;;;;;20.62;76.27;99684.09;5134022;27;20059;-85
2023/05/30 06:58:07;;;;;;;3.95;2.30;;;;;;;20.47;74.99;99649.19;5134729;27;20069;-84
2023/05/30 07:00:33;;;;;;;8.23;2.40;;;;;;;20.66;73.86;99645.50;5133675;27;20031;-84
2023/05/30 07:03:00;;;;;;;8.57;2.70;;;;;;;20.84;74.41;99687.31;5133713;27;20468;-84
2023/05/30 07:05:26;;;;;;;5.93;1.75;;;;;;;20.41;74.28;99636.13;5134091;27;20030;-85
2023/05/30 07:07:51;;;;;;;6.82;2.63;;;;;;;20.90;73.82;99678.06;5131986;27;20031;-84
2023/05/30 07:10:17;;;;;;;4.78;2.50;;;;;;;20.70;74.82;99681.88;5132262;27;20378;-87
2023/05/30 07:12:42;;;;;;;3.60;2.10;;;;;;;20.75;74.58;99661.88;5132593;27;20047;-86
2023/05/30 07:15:08;;;;;;;8.77;2.38;;;;;;;20.94;74.71;99687.63;5133032;27;20031;-85
2023/05/30 07:17:34;;;;;;;4.68;2.25;;;;;;;20.87;75.54;99679.09;5132568;27;20031;-84
2023/05/30 07:19:59;;;;;;;7.95;2.63;;;;;;;20.80;74.49;99650.91;5132740;27;20038;-84
2023/05/30 07:22:25;;;;;;;5.13;3.15;;;;;;;20.69;75.41;99666.75;5132738;27;20027;-85
2023/05/30 07:24:50;;;;;;;13.05;3.20;;;;;;;20.62;74.65;99679.63;5132646;27;20034;-85
2023/05/30 07:27:16;;;;;;;5.68;2.90;;;;;;;20.66;74.77;99674.97;5132867;27;20062;-86
2023/05/30 07:29:41;;;;;;;4.10;2.08;;;;;;;20.64;75.59;99650.03;5132584;27;20026;-84
2023/05/30 07:32:07;;;;;;;6.43;3.08;;;;;;;20.99;74.92;99677.53;5133042;27;20027;-83
2023/05/30 07:34:32;;;;;;;6.10;3.35;;;;;;;20.79;75.09;99645.63;5132134;27;20023;-83
2023/05/30 07:36:58;;;;;;;3.85;2.15;;;;;;;21.20;74.45;99702.19;5132539;27;20027;-83
2023/05/30 07:39:23;;;;;;;8.13;3.33;;;;;;;21.12;75.00;99677.66;5132514;27;20030;-84
2023/05/30 07:41:49;;;;;;;16.20;9.27;;;;;;;21.02;75.00;99636.25;5133332;27;20031;-85
2023/05/30 07:44:14;;;;;;;8.02;4.47;;;;;;;21.28;75.60;99657.00;5132909;27;20091;-83
2023/05/30 07:46:40;;;;;;;4.90;3.15;;;;;;;21.36;76.93;99674.47;5133316;27;20031;-83
2023/05/30 07:49:05;;;;;;;4.40;2.35;;;;;;;21.54;76.47;99678.75;5132735;27;20026;-84
2023/05/30 07:51:31;;;;;;;3.70;2.58;;;;;;;21.85;75.29;99708.22;5132892;27;20023;-84
2023/05/30 07:53:57;;;;;;;4.97;2.50;;;;;;;21.81;74.06;99680.69;5133218;27;20043;-83
2023/05/30 07:56:22;;;;;;;5.80;3.13;;;;;;;21.63;74.55;99683.56;5132809;27;20648;-84
2023/05/30 07:58:48;;;;;;;5.05;2.10;;;;;;;21.51;74.83;99673.56;5133276;27;20114;-83
2023/05/30 08:01:13;;;;;;;4.15;2.17;;;;;;;21.69;73.75;99705.59;5133008;27;20019;-83
2023/05/30 08:03:39;;;;;;;6.65;2.10;;;;;;;21.43;74.98;99705.34;5132621;27;20429;-84
2023/05/30 08:06:04;;;;;;;5.63;2.50;;;;;;;21.38;76.34;99685.94;5132079;27;20027;-84
2023/05/30 08:08:30;;;;;;;5.32;3.53;;;;;;;21.19;78.56;99676.31;5132223;27;20041;-83
2023/05/30 08:10:56;;;;;;;8.82;2.88;;;;;;;21.51;76.91;99670.03;5131804;27;20026;-84
2023/05/30 08:13:28;;;;;;;4.90;2.80;;;;;;;21.66;78.22;99678.94;5132024;27;20046;-85
2023/05/30 08:15:54;;;;;;;7.30;3.63;;;;;;;21.65;79.85;99707.63;5132115;27;20416;-84
2023/05/30 08:18:21;;;;;;;4.75;2.92;;;;;;;21.85;78.67;99695.66;5131976;27;20191;-84
2023/05/30 08:20:47;;;;;;;4.35;2.33;;;;;;;22.03;75.51;99692.78;5131478;27;20117;-84
2023/05/30 08:23:13;;;;;;;5.35;3.03;;;;;;;21.80;76.56;99681.66;5131784;27;20480;-84
2023/05/30 08:25:42;;;;;;;8.75;3.13;;;;;;;21.75;75.61;99678.38;5131978;27;20030;-84
2023/05/30 08:28:10;;;;;;;9.50;3.60;;;;;;;22.11;74.61;99707.47;5131949;27;20035;-84
2023/05/30 08:30:35;;;;;;;8.50;2.97;;;;;;;22.14;75.26;99715.31;5130105;27;20393;-84
2023/05/30 08:33:01;;;;;;;19.00;2.95;;;;;;;22.00;75.26;99686.66;5131728;27;20027;-84
2023/05/30 08:35:27;;;;;;;5.15;2.72;;;;;;;21.98;74.33;99685.88;5131713;27;20035;-84
2023/05/30 08:37:52;;;;;;;8.80;2.85;;;;;;;21.89;76.74;99697.22;5131839;27;20072;-85
2023/05/30 08:40:21;;;;;;;5.90;3.75;;;;;;;21.63;74.20;99653.19;5131707;27;20038;-84
2023/05/30 08:42:47;;;;;;;6.75;3.45;;;;;;;21.78;74.20;99705.03;5131709;27;20119;-84
2023/05/30 08:45:12;;;;;;;8.90;3.58;;;;;;;21.82;74.25;99679.75;5131478;27;20114;-83
2023/05/30 08:47:39;;;;;;;9.40;3.22;;;;;;;21.87;74.73;99703.63;5131161;27;20420;-84
2023/05/30 08:50:07;;;;;;;5.00;2.67;;;;;;;21.57;74.74;99665.13;5131236;27;20038;-84
2023/05/30 08:52:33;;;;;;;8.25;4.60;;;;;;;21.75;75.82;99698.06;5131933;27;20066;-83
2023/05/30 08:55:01;;;;;;;5.30;2.97;;;;;;;21.78;78.80;99700.56;5131551;27;20062;-84
2023/05/30 08:57:34;;;;;;;7.60;3.85;;;;;;;21.69;77.80;99678.75;5126484;27;20027;-84
2023/05/30 09:00:03;;;;;;;6.93;3.42;;;;;;;21.94;73.93;99703.13;5120700;27;20031;-83
2023/05/30 09:02:29;;;;;;;6.75;2.92;;;;;;;21.66;79.19;99678.94;5115176;27;20076;-85
2023/05/30 09:04:57;;;;;;;6.00;3.05;;;;;;;21.46;77.68;99667.59;5120506;27;20034;-89
2023/05/30 09:07:24;;;;;;;7.53;3.30;;;;;;;21.88;76.79;99692.78;5120183;27;20032;-87
2023/05/30 09:09:51;;;;;;;7.03;3.30;;;;;;;21.92;75.50;99678.22;5120451;27;20039;-85
2023/05/30 09:12:17;;;;;;;9.32;2.85;;;;;;;21.93;74.37;99684.44;5127831;27;20495;-84
2023/05/30 09:14:42;;;;;;;3.72;2.28;;;;;;;21.55;74.31;99669.75;5122761;27;20047;-86
2023/05/30 09:17:09;;;;;;;4.28;2.40;;;;;;;21.70;75.35;99699.28;5107631;28;20130;-86
2023/05/30 09:19:37;;;;;;;7.03;3.25;;;;;;;21.97;72.40;99694.03;5108690;27;20046;-86
2023/05/30 09:22:03;;;;;;;5.50;2.83;;;;;;;22.04;71.58;99671.19;5119305;27;20481;-86
2023/05/30 09:24:59;;;;;;;4.50;2.95;;;;;;;22.33;71.30;99720.41;5124473;27;20076;-87
2023/05/30 09:27:25;;;;;;;5.05;2.25;;;;;;;21.70;72.12;99685.84;5112088;28;20453;-87
2023/05/30 09:29:51;;;;;;;8.02;2.63;;;;;;;21.69;71.86;99660.84;5109469;27;20122;-85
2023/05/30 09:32:17;;;;;;;5.10;2.97;;;;;;;22.16;70.37;99717.91;5115288;28;20036;-85
2023/05/30 09:34:53;;;;;;;6.40;2.47;;;;;;;21.91;70.58;99711.38;5116988;28;20087;-84
2023/05/30 09:37:19;;;;;;;3.83;2.58;;;;;;;21.91;71.07;99670.25;5116407;27;20027;-85
2023/05/30 09:40:06;;;;;;;4.25;2.25;;;;;;;22.24;69.42;99679.81;5160058;27;20046;-88
2023/05/30 09:42:50;;;;;;;5.53;2.95;;;;;;;22.31;69.68;99686.56;5121763;28;20498;-88
2023/05/30 09:45:18;;;;;;;3.67;2.38;;;;;;;22.44;69.08;99663.31;5126030;28;20404;-85
2023/05/30 09:47:49;;;;;;;3.05;1.98;;;;;;;22.25;71.13;99666.28;5128590;28;20200;-86
2023/05/30 09:50:21;;;;;;;4.72;2.25;;;;;;;22.66;70.55;99673.53;5114879;27;20771;-86
2023/05/30 09:52:51;;;;;;;6.10;2.20;;;;;;;22.63;70.21;99686.28;5120412;28;20020;-85
2023/05/30 09:55:19;;;;;;;4.30;1.88;;;;;;;22.50;69.82;99667.44;5109564;28;20039;-83
2023/05/30 09:57:51;;;;;;;3.67;2.33;;;;;;;22.52;68.97;99692.38;5120310;28;20027;-85
2023/05/30 10:00:23;;;;;;;11.55;2.33;;;;;;;22.98;68.53;99672.34;5110439;28;20493;-83
2023/05/30 10:02:53;;;;;;;3.63;2.38;;;;;;;23.40;65.12;99675.81;5130164;27;20027;-82
2023/05/30 10:05:21;;;;;;;8.25;2.72;;;;;;;23.56;66.48;99675.63;5109146;28;20038;-83
2023/05/30 10:07:49;;;;;;;5.28;2.60;;;;;;;23.62;65.14;99640.22;5109774;28;20028;-84
2023/05/30 10:10:16;;;;;;;4.88;3.03;;;;;;;23.49;67.35;99663.56;5128120;28;20027;-83
2023/05/30 10:12:43;;;;;;;4.15;2.50;;;;;;;23.97;67.13;99674.56;5120055;28;20041;-84
2023/05/30 10:15:10;;;;;;;3.47;1.85;;;;;;;24.28;61.76;99666.97;5126103;28;20058;-84
2023/05/30 10:17:38;;;;;;;4.13;2.17;;;;;;;23.50;63.59;99668.84;5121767;27;20453;-84
2023/05/30 10:20:09;;;;;;;3.47;1.92;;;;;;;23.85;66.33;99637.75;5118468;27;20050;-83
2023/05/30 10:22:42;;;;;;;4.80;2.42;;;;;;;24.18;64.02;99665.94;5123076;27;20035;-85
2023/05/30 10:25:08;;;;;;;3.35;1.40;;;;;;;23.88;61.53;99670.72;5124067;28;20038;-84
2023/05/30 10:27:53;;;;;;;3.20;2.00;;;;;;;23.88;62.57;99677.91;5123731;28;20111;-84
2023/05/30 10:30:29;;;;;;;;;;;;;;;24.41;61.92;99681.31;5112788;27;20023;-84
2023/05/30 10:33:07;;;;;;;2.83;1.45;;;;;;;24.10;62.29;99678.13;5122962;27;20000;-86
2023/05/30 10:35:34;;;;;;;2.33;1.40;;;;;;;23.90;62.56;99651.75;5109195;28;20023;-86
2023/05/30 10:38:00;;;;;;;4.18;2.47;;;;;;;24.00;64.02;99671.66;5108366;28;20503;-86
2023/05/30 10:40:44;;;;;;;3.78;2.15;;;;;;;24.18;60.10;99676.72;5118050;28;20054;-87
2023/05/30 10:43:23;;;;;;;3.28;1.88;;;;;;;23.80;61.52;99656.88;5117943;27;20111;-86
2023/05/30 10:45:51;;;;;;;4.72;1.67;;;;;;;24.01;58.72;99676.09;5132971;27;20028;-87
2023/05/30 10:48:33;;;;;;;4.05;1.85;;;;;;;23.73;61.28;99647.53;5133368;27;20479;-86
2023/05/30 10:50:59;;;;;;;2.45;1.38;;;;;;;23.68;60.90;99637.09;5127366;27;20032;-86
2023/05/30 10:53:26;;;;;;;2.22;1.58;;;;;;;23.78;63.35;99669.59;5114326;27;20039;-87
2023/05/30 10:55:51;;;;;;;1.90;1.20;;;;;;;24.16;60.38;99646.31;5121467;27;20038;-86
2023/05/30 10:58:38;;;;;;;2.53;1.60;;;;;;;24.61;61.58;99658.31;5130593;27;20106;-84
2023/05/30 11:01:26;;;;;;;6.00;2.92;;;;;;;25.03;59.83;99650.66;5132605;27;20030;-86
2023/05/30 11:04:13;;;;;;;2.53;1.58;;;;;;;25.45;60.35;99660.16;5125120;27;20038;-85
2023/05/30 11:06:42;;;;;;;1.95;1.00;;;;;;;25.30;56.92;99632.50;5128301;27;20037;-84
2023/05/30 11:09:17;;;;;;;2.92;1.85;;;;;;;25.27;55.98;99646.19;5132028;27;20420;-84
2023/05/30 11:11:45;;;;;;;2.65;1.60;;;;;;;24.75;57.25;99602.47;5132104;27;20027;-84
2023/05/30 11:14:12;;;;;;;2.67;1.33;;;;;;;24.84;55.71;99632.31;5127508;27;20486;-84
2023/05/30 11:16:59;;;;;;;4.53;1.73;;;;;;;24.80;52.71;99622.72;5124859;27;20035;-85
2023/05/30 11:19:39;;;;;;;4.47;1.60;;;;;;;25.05;55.37;99646.97;5137442;27;20032;-85
2023/05/30 11:22:17;;;;;;;5.05;2.78;;;;;;;24.83;58.41;99614.38;5125265;27;20040;-84
2023/05/30 11:24:44;;;;;;;4.63;2.83;;;;;;;24.51;56.01;99603.28;5120496;27;20024;-84
2023/05/30 11:27:13;;;;;;;2.67;1.60;;;;;;;24.60;55.61;99612.56;5124411;27;20535;-84
2023/05/30 11:29:55;;;;;;;4.47;2.72;;;;;;;25.28;57.28;99607.44;5124812;27;20027;-85
2023/05/30 11:32:23;;;;;;;4.57;2.05;;;;;;;25.42;54.67;99630.69;5132094;27;20031;-83
2023/05/30 11:35:04;;;;;;;2.83;1.25;;;;;;;25.19;52.55;99627.88;5132094;27;20039;-84
2023/05/30 11:37:35;;;;;;;3.53;2.05;;;;;;;25.27;55.36;99619.19;5132281;27;20100;-82